Time;durP1;ratioP1;P1;durP2;ratioP2;P2;SDS_P1;SDS_P2;PMS_P1;PMS_P2;Temp;Humidity;BMP_temperature;BMP_pressure;BME280_temperature;BME280_humidity;BME280_pressure;Samples;Min_cycle;Max_cycle;Signal;HPM_P1;HPM_P2
2021/12/11 00:03:18;;;;;;;33.03;11.38;;;;;;;-0.88;100.00;99481.53;5975556;29;20058;-92
2021/12/11 00:06:28;;;;;;;27.35;10.85;;;;;;;-0.90;100.00;99493.50;5985547;29;20117;-92
2021/12/11 00:09:35;;;;;;;35.40;10.73;;;;;;;-0.90;100.00;99498.56;5978317;29;20042;-92
2021/12/11 00:12:45;;;;;;;35.42;11.45;;;;;;;-0.86;100.00;99506.88;5969056;29;20050;-92
2021/12/11 00:15:48;;;;;;;39.10;10.90;;;;;;;-0.83;100.00;99516.88;5972831;29;20054;-92
2021/12/11 00:19:01;;;;;;;29.65;10.93;;;;;;;-0.88;100.00;99516.28;5972973;29;20110;-92
2021/12/11 00:22:10;;;;;;;34.28;12.85;;;;;;;-0.90;100.00;99518.06;5975624;29;20134;-92
2021/12/11 00:25:14;;;;;;;30.75;10.95;;;;;;;-0.88;100.00;99534.06;5974339;29;20687;-92
2021/12/11 00:28:16;;;;;;;24.08;11.52;;;;;;;-0.89;100.00;99537.53;5985021;29;20053;-92
2021/12/11 00:31:33;;;;;;;24.30;10.90;;;;;;;-0.95;100.00;99541.16;5973795;29;20082;-92
2021/12/11 00:34:40;;;;;;;24.95;10.82;;;;;;;-0.94;100.00;99535.19;5984632;29;20062;-92
2021/12/11 00:37:42;;;;;;;30.38;11.85;;;;;;;-0.95;100.00;99542.88;5986324;29;20336;-92
2021/12/11 00:40:46;;;;;;;40.70;11.95;;;;;;;-0.96;100.00;99546.31;5983917;29;20054;-92
2021/12/11 00:43:50;;;;;;;27.30;10.80;;;;;;;-1.00;100.00;99560.06;5983821;29;20057;-92
2021/12/11 00:46:52;;;;;;;28.80;9.98;;;;;;;-1.02;100.00;99564.38;5972392;29;20199;-92
2021/12/11 00:50:08;;;;;;;21.85;11.07;;;;;;;-1.05;100.00;99570.41;5989551;29;20195;-92
2021/12/11 00:53:28;;;;;;;32.30;11.75;;;;;;;-1.01;100.00;99566.84;5984631;29;20046;-92
2021/12/11 00:56:37;;;;;;;22.48;10.57;;;;;;;-1.01;100.00;99577.00;5990139;29;20045;-92
2021/12/11 00:59:39;;;;;;;35.50;12.48;;;;;;;-1.02;100.00;99580.44;5975838;29;20597;-92
2021/12/11 01:02:44;;;;;;;31.83;11.07;;;;;;;-1.02;100.00;99587.22;5972793;29;20121;-92
2021/12/11 01:05:50;;;;;;;26.60;10.60;;;;;;;-1.03;100.00;99588.94;5983180;29;20070;-92
2021/12/11 01:08:58;;;;;;;27.80;10.82;;;;;;;-1.08;100.00;99595.97;5990797;29;20050;-92
2021/12/11 01:12:21;;;;;;;27.52;11.95;;;;;;;-1.13;100.00;99585.19;5986305;29;20167;-92
2021/12/11 01:15:31;;;;;;;20.60;10.60;;;;;;;-1.14;100.00;99589.47;6005194;29;20091;-92
2021/12/11 01:18:36;;;;;;;41.92;11.50;;;;;;;-1.16;100.00;99603.94;5975721;29;20062;-92
2021/12/11 01:24:52;;;;;;;28.02;11.48;;;;;;;-1.22;100.00;99608.47;5995121;29;20054;-93
2021/12/11 01:27:57;;;;;;;31.25;11.38;;;;;;;-1.16;100.00;99619.16;5979460;29;20053;-92
2021/12/11 01:31:01;;;;;;;20.38;9.43;;;;;;;-1.14;100.00;99627.53;5994076;29;20050;-93
2021/12/11 01:34:04;;;;;;;20.40;10.35;;;;;;;-1.19;100.00;99634.56;5995970;29;20518;-93
2021/12/11 01:37:07;;;;;;;19.77;9.60;;;;;;;-1.20;100.00;99635.44;5995481;29;20042;-92
2021/12/11 01:40:13;;;;;;;18.17;10.60;;;;;;;-1.15;100.00;99650.47;5985590;29;20058;-92
2021/12/11 01:43:20;;;;;;;18.70;9.45;;;;;;;-1.13;100.00;99658.84;5980545;29;20038;-93
2021/12/11 01:46:24;;;;;;;19.05;8.98;;;;;;;-1.20;100.00;99670.16;5979956;29;20050;-92
2021/12/11 01:49:26;;;;;;;20.00;9.50;;;;;;;-1.25;100.00;99674.63;5994263;29;20533;-92
2021/12/11 01:52:50;;;;;;;34.72;11.07;;;;;;;-1.23;100.00;99681.28;5978017;29;20136;-92
2021/12/11 01:55:59;;;;;;;53.67;12.23;;;;;;;-1.17;100.00;99687.78;5972156;29;20054;-92
2021/12/11 01:59:12;;;;;;;30.85;10.93;;;;;;;-1.17;100.00;99691.16;5985551;29;20054;-93
2021/12/11 02:02:21;;;;;;;31.35;10.82;;;;;;;-1.16;100.00;99690.25;5982717;29;20054;-92
2021/12/11 02:05:29;;;;;;;26.83;10.05;;;;;;;-1.17;100.00;99697.94;5980547;29;20619;-93
2021/12/11 02:08:34;;;;;;;33.38;11.10;;;;;;;-1.19;100.00;99704.78;5984517;29;20042;-92
2021/12/11 02:11:36;;;;;;;141.27;16.27;;;;;;;-1.19;100.00;99703.09;5994704;29;20058;-92
2021/12/11 02:14:45;;;;;;;90.03;13.73;;;;;;;-1.22;100.00;99717.63;5983570;29;20050;-92
2021/12/11 02:17:55;;;;;;;51.72;12.77;;;;;;;-1.21;100.00;99715.03;5990938;29;20134;-92
2021/12/11 02:21:04;;;;;;;82.97;14.20;;;;;;;-1.18;100.00;99719.97;5982321;29;20052;-92
2021/12/11 02:24:11;;;;;;;61.97;13.10;;;;;;;-1.15;100.00;99726.63;5993955;29;20137;-92
2021/12/11 02:27:28;;;;;;;84.65;14.77;;;;;;;-1.16;100.00;99735.97;5989721;29;20061;-92
2021/12/11 02:31:07;;;;;;;73.75;12.15;;;;;;;-1.17;100.00;99744.50;5975358;29;20057;-93
2021/12/11 02:34:16;;;;;;;45.90;12.07;;;;;;;-1.14;100.00;99753.69;5996256;29;20549;-92
2021/12/11 02:38:04;;;;;;;68.28;13.20;;;;;;;-1.12;100.00;99752.72;5993542;29;20072;-92
2021/12/11 02:41:22;;;;;;;106.10;15.20;;;;;;;-1.15;100.00;99757.09;5963166;29;20093;-92
2021/12/11 02:44:32;;;;;;;71.68;13.23;;;;;;;-1.10;100.00;99761.09;5988988;29;20054;-92
2021/12/11 02:47:41;;;;;;;98.82;13.65;;;;;;;-1.12;100.00;99759.50;5990931;29;20050;-92
2021/12/11 02:51:15;;;;;;;92.88;13.45;;;;;;;-1.11;100.00;99759.44;5973153;29;20142;-92
2021/12/11 02:54:37;;;;;;;59.08;11.88;;;;;;;-1.14;100.00;99769.75;5979508;29;20053;-92
2021/12/11 02:57:48;;;;;;;37.08;10.95;;;;;;;-1.16;100.00;99775.78;5985124;29;20148;-93
2021/12/11 03:01:21;;;;;;;91.15;14.10;;;;;;;-1.20;100.00;99771.72;5985078;29;20074;-92
2021/12/11 03:04:34;;;;;;;65.18;13.50;;;;;;;-1.28;100.00;99779.66;5977833;29;20054;-92
2021/12/11 03:07:38;;;;;;;75.57;12.50;;;;;;;-1.25;100.00;99782.06;5992959;29;20134;-92
2021/12/11 03:10:43;;;;;;;116.07;13.30;;;;;;;-1.27;100.00;99780.47;5983630;29;20042;-92
2021/12/11 03:13:50;;;;;;;52.28;12.35;;;;;;;-1.29;100.00;99780.56;5996930;29;20053;-93
2021/12/11 03:16:53;;;;;;;99.47;12.13;;;;;;;-1.27;100.00;99788.91;5983166;29;20100;-93
2021/12/11 03:19:56;;;;;;;82.40;13.48;;;;;;;-1.26;100.00;99790.56;5998768;29;20062;-93
2021/12/11 03:22:58;;;;;;;73.03;13.50;;;;;;;-1.28;100.00;99799.16;6000635;29;20050;-93
2021/12/11 03:26:01;;;;;;;77.63;13.05;;;;;;;-1.29;100.00;99811.03;5998078;29;20039;-92
2021/12/11 03:29:03;;;;;;;71.65;12.85;;;;;;;-1.30;100.00;99811.88;5993803;29;20062;-92
2021/12/11 03:32:08;;;;;;;67.20;12.18;;;;;;;-1.29;100.00;99816.09;5998904;29;20054;-93
2021/12/11 03:35:11;;;;;;;74.45;12.10;;;;;;;-1.36;100.00;99817.25;5999598;29;20053;-93
2021/12/11 03:38:15;;;;;;;37.08;11.10;;;;;;;-1.39;100.00;99819.88;5983954;29;20057;-92
2021/12/11 03:41:18;;;;;;;43.35;11.30;;;;;;;-1.36;100.00;99827.38;6000030;29;20054;-92
2021/12/11 03:44:21;;;;;;;55.47;10.73;;;;;;;-1.32;100.00;99831.44;5988394;29;20046;-93
2021/12/11 03:47:33;;;;;;;37.63;10.18;;;;;;;-1.36;100.00;99837.53;5998294;29;20099;-92
2021/12/11 03:50:38;;;;;;;43.38;10.95;;;;;;;-1.32;100.00;99844.13;5995927;29;20046;-93
2021/12/11 03:53:40;;;;;;;50.20;11.82;;;;;;;-1.31;100.00;99850.88;5998756;29;20095;-92
2021/12/11 03:56:43;;;;;;;69.50;11.38;;;;;;;-1.33;100.00;99855.19;5999468;29;20142;-92
2021/12/11 03:59:48;;;;;;;79.05;12.00;;;;;;;-1.30;100.00;99855.06;5998013;29;20052;-93
2021/12/11 04:02:53;;;;;;;42.92;10.13;;;;;;;-1.29;100.00;99859.25;5987440;29;20111;-92
2021/12/11 04:05:58;;;;;;;58.28;12.15;;;;;;;-1.28;100.00;99857.53;5983940;29;20046;-92
2021/12/11 04:09:04;;;;;;;77.18;12.00;;;;;;;-1.25;100.00;99872.63;5998767;29;20057;-92
2021/12/11 04:12:08;;;;;;;54.83;11.20;;;;;;;-1.25;100.00;99873.47;5998258;29;20653;-93
2021/12/11 04:15:11;;;;;;;30.95;10.23;;;;;;;-1.33;100.00;99881.38;5996311;29;20108;-92
2021/12/11 04:18:14;;;;;;;34.55;10.40;;;;;;;-1.34;100.00;99889.91;5990767;29;20125;-93
2021/12/11 04:21:16;;;;;;;40.45;10.40;;;;;;;-1.31;100.00;99878.78;6001170;29;20065;-92
2021/12/11 04:24:23;;;;;;;31.65;10.75;;;;;;;-1.28;100.00;99888.81;6002131;29;20050;-92
2021/12/11 04:27:27;;;;;;;24.48;9.85;;;;;;;-1.25;100.00;99898.03;5996004;29;20047;-92
2021/12/11 04:30:29;;;;;;;21.80;10.07;;;;;;;-1.26;100.00;99904.00;5990966;29;20145;-92
2021/12/11 04:33:45;;;;;;;23.83;10.05;;;;;;;-1.32;100.00;99910.13;5984526;29;20393;-93
2021/12/11 04:36:57;;;;;;;19.33;9.73;;;;;;;-1.31;100.00;99910.06;5989356;29;20080;-93
2021/12/11 04:40:12;;;;;;;27.88;10.02;;;;;;;-1.31;100.00;99910.06;5987223;29;20564;-93
2021/12/11 04:43:20;;;;;;;18.95;9.35;;;;;;;-1.26;100.00;99911.63;5999387;29;20211;-92
2021/12/11 04:46:22;;;;;;;18.52;10.15;;;;;;;-1.22;100.00;99921.56;5997920;29;20046;-92
2021/12/11 04:49:34;;;;;;;19.25;10.55;;;;;;;-1.18;100.00;99927.38;5986596;29;20054;-92
2021/12/11 04:52:53;;;;;;;19.35;9.98;;;;;;;-1.16;100.00;99935.75;5983649;29;20587;-93
2021/12/11 05:05:50;;;;;;;18.73;9.65;;;;;;;-1.21;100.00;99965.59;5999212;29;20504;-92
2021/12/11 05:12:38;;;;;;;21.15;10.98;;;;;;;-1.19;100.00;99973.94;5997897;29;20078;-92
2021/12/11 05:15:41;;;;;;;19.30;10.27;;;;;;;-1.16;100.00;99976.38;5990159;29;20058;-93
2021/12/11 05:18:46;;;;;;;19.70;10.50;;;;;;;-1.18;100.00;99980.69;6001118;29;20055;-93
2021/12/11 05:21:48;;;;;;;23.95;11.07;;;;;;;-1.17;100.00;99995.88;5998988;29;20058;-92
2021/12/11 05:24:54;;;;;;;17.98;10.55;;;;;;;-1.16;100.00;99994.97;5983042;29;20051;-92
2021/12/11 05:27:57;;;;;;;18.20;10.48;;;;;;;-1.19;100.00;99990.03;5985323;29;20054;-92
2021/12/11 05:31:03;;;;;;;17.40;9.88;;;;;;;-1.20;100.00;99998.50;5995912;29;20046;-92
2021/12/11 05:34:06;;;;;;;20.70;10.23;;;;;;;-1.17;100.00;100011.09;5976515;29;20518;-92
2021/12/11 05:37:09;;;;;;;19.13;9.68;;;;;;;-1.15;100.00;100011.84;5997631;29;20050;-92
2021/12/11 05:40:15;;;;;;;19.33;9.95;;;;;;;-1.12;100.00;100016.84;5997107;29;20513;-92
2021/12/11 05:43:19;;;;;;;18.15;9.93;;;;;;;-1.10;100.00;100024.38;5998224;29;20141;-92
2021/12/11 05:46:22;;;;;;;17.90;10.18;;;;;;;-1.08;100.00;100032.78;5981535;29;20062;-93
2021/12/11 05:49:27;;;;;;;16.58;9.82;;;;;;;-1.10;100.00;100037.88;5984095;29;20051;-93
2021/12/11 05:52:29;;;;;;;15.48;9.55;;;;;;;-1.10;100.00;100048.06;5985333;29;20050;-92
2021/12/11 05:55:34;;;;;;;15.23;8.85;;;;;;;-1.12;100.00;100049.84;5988700;29;20085;-92
2021/12/11 06:02:02;;;;;;;15.77;10.18;;;;;;;-1.14;100.00;100055.88;5988641;29;20051;-92
2021/12/11 06:05:05;;;;;;;15.93;9.40;;;;;;;-1.12;100.00;100057.47;5988037;29;20043;-93
2021/12/11 06:08:09;;;;;;;14.52;8.88;;;;;;;-1.09;100.00;100066.69;5979360;29;20054;-92
2021/12/11 06:11:15;;;;;;;15.18;9.60;;;;;;;-1.09;100.00;100061.59;5958652;29;20055;-92
2021/12/11 06:14:20;;;;;;;18.92;10.25;;;;;;;-1.11;100.00;100066.72;5982203;29;20065;-92
2021/12/11 06:17:25;;;;;;;16.98;10.13;;;;;;;-1.04;100.00;100066.47;5994038;29;20058;-93
2021/12/11 06:20:31;;;;;;;15.00;9.02;;;;;;;-1.02;100.00;100078.22;5978838;29;20130;-92
2021/12/11 06:23:40;;;;;;;16.05;9.35;;;;;;;-1.02;100.00;100077.41;5986289;29;20058;-92
2021/12/11 06:26:43;;;;;;;15.60;9.50;;;;;;;-1.03;100.00;100075.78;5989977;29;20062;-92
2021/12/11 06:29:46;;;;;;;16.23;10.23;;;;;;;-1.03;100.00;100091.84;5993787;29;20056;-93
2021/12/11 06:33:03;;;;;;;14.57;9.10;;;;;;;-1.04;100.00;100100.34;5995077;29;20091;-92
2021/12/11 06:36:10;;;;;;;15.00;9.40;;;;;;;-1.02;100.00;100111.25;5995949;29;20130;-92
2021/12/11 06:39:16;;;;;;;18.15;10.40;;;;;;;-1.01;100.00;100119.72;5981456;29;20054;-93
2021/12/11 06:42:20;;;;;;;17.80;9.00;;;;;;;-0.97;100.00;100124.63;5998447;29;20085;-93
2021/12/11 06:45:25;;;;;;;16.20;9.88;;;;;;;-0.95;100.00;100124.56;5998191;29;20051;-93
2021/12/11 06:48:27;;;;;;;17.65;9.30;;;;;;;-1.03;100.00;100121.50;5996346;29;20055;-93
2021/12/11 06:51:31;;;;;;;15.70;9.35;;;;;;;-1.00;100.00;100129.81;5994791;29;20043;-92
2021/12/11 06:54:33;;;;;;;15.52;9.20;;;;;;;-0.93;100.00;100140.56;5987444;29;20043;-93
2021/12/11 06:57:35;;;;;;;15.90;9.02;;;;;;;-0.93;100.00;100143.13;5977204;29;20065;-92
2021/12/11 07:00:37;;;;;;;17.85;10.02;;;;;;;-0.96;100.00;100144.06;5993546;29;20252;-92
2021/12/11 07:03:41;;;;;;;16.05;9.15;;;;;;;-0.94;100.00;100165.16;5979821;29;20054;-93
2021/12/11 07:06:48;;;;;;;15.85;9.35;;;;;;;-0.95;100.00;100170.28;5983345;29;20055;-92
2021/12/11 07:09:52;;;;;;;14.50;8.80;;;;;;;-0.96;100.00;100172.00;5980810;29;20455;-92
2021/12/11 07:12:54;;;;;;;16.52;9.35;;;;;;;-0.98;100.00;100161.06;5981677;29;20049;-92
2021/12/11 07:15:58;;;;;;;15.32;9.02;;;;;;;-1.00;100.00;100178.06;5991279;29;20049;-92
2021/12/11 07:19:06;;;;;;;14.73;8.20;;;;;;;-1.05;100.00;100186.75;5984990;29;20058;-92
2021/12/11 07:22:10;;;;;;;15.68;8.82;;;;;;;-1.08;100.00;100192.78;5985167;29;20053;-92
2021/12/11 07:25:56;;;;;;;17.13;9.23;;;;;;;-1.17;100.00;100196.47;5993415;29;20065;-92
2021/12/11 07:29:05;;;;;;;14.80;8.75;;;;;;;-1.31;100.00;100203.75;5980602;29;20059;-93
2021/12/11 07:32:08;;;;;;;15.23;9.35;;;;;;;-1.53;100.00;100207.03;5983630;29;20054;-92
2021/12/11 07:35:10;;;;;;;15.02;8.57;;;;;;;-1.60;100.00;100215.72;5978300;29;20130;-92
2021/12/11 07:38:13;;;;;;;19.52;9.88;;;;;;;-1.75;100.00;100221.31;5984163;29;20042;-92
2021/12/11 07:41:17;;;;;;;15.25;8.82;;;;;;;-1.81;100.00;100224.91;5997674;29;20050;-92
2021/12/11 07:44:21;;;;;;;15.07;9.18;;;;;;;-1.81;100.00;100229.16;5970609;29;20062;-92
2021/12/11 07:47:23;;;;;;;21.92;12.38;;;;;;;-1.88;100.00;100236.13;5993757;29;20054;-92
2021/12/11 07:50:26;;;;;;;15.48;9.32;;;;;;;-1.95;100.00;100245.63;5990453;29;20047;-92
2021/12/11 07:53:29;;;;;;;15.70;9.80;;;;;;;-1.99;100.00;100245.75;5968221;29;20069;-92
2021/12/11 07:56:31;;;;;;;17.13;9.88;;;;;;;-2.06;100.00;100259.50;5990040;29;20050;-92
2021/12/11 07:59:34;;;;;;;17.60;9.93;;;;;;;-2.08;100.00;100262.09;5985203;29;20187;-92
2021/12/11 08:02:50;;;;;;;18.95;9.43;;;;;;;-2.05;100.00;100264.53;5992970;29;20062;-92
2021/12/11 08:05:53;;;;;;;16.55;8.48;;;;;;;-2.05;100.00;100271.31;5970303;29;20050;-92
2021/12/11 08:08:56;;;;;;;15.10;8.25;;;;;;;-2.03;100.00;100272.94;5986001;29;20345;-92
2021/12/11 08:11:58;;;;;;;15.07;9.00;;;;;;;-1.99;100.00;100281.25;5990671;29;20630;-92
2021/12/11 08:15:02;;;;;;;14.70;9.63;;;;;;;-2.01;100.00;100294.00;6005690;29;20058;-92
2021/12/11 08:18:07;;;;;;;17.55;9.82;;;;;;;-2.03;100.00;100283.09;5978862;29;20492;-92
2021/12/11 08:21:09;;;;;;;17.23;9.35;;;;;;;-1.98;100.00;100288.84;5992463;29;20416;-92
2021/12/11 08:24:11;;;;;;;14.07;8.23;;;;;;;-2.00;100.00;100313.41;5993569;29;20054;-92
2021/12/11 08:27:20;;;;;;;17.20;10.50;;;;;;;-2.00;100.00;100310.88;5988472;29;20054;-92
2021/12/11 08:30:25;;;;;;;21.63;12.70;;;;;;;-1.92;100.00;100315.72;5981596;29;20060;-92
2021/12/11 08:33:28;;;;;;;23.27;13.93;;;;;;;-1.88;100.00;100313.94;5980566;29;20146;-92
2021/12/11 08:36:30;;;;;;;25.80;14.55;;;;;;;-1.90;100.00;100323.28;5992397;29;20062;-91
2021/12/11 08:39:32;;;;;;;26.05;14.93;;;;;;;-1.84;100.00;100329.00;5991726;29;20531;-92
2021/12/11 08:42:40;;;;;;;20.65;12.75;;;;;;;-1.81;100.00;100331.44;5989740;29;20548;-92
2021/12/11 08:45:50;;;;;;;18.88;12.30;;;;;;;-1.72;100.00;100340.47;5978556;29;20056;-92
2021/12/11 08:48:58;;;;;;;21.38;12.43;;;;;;;-1.71;100.00;100342.13;5990615;29;20070;-92
2021/12/11 08:52:03;;;;;;;20.67;12.32;;;;;;;-1.69;100.00;100339.53;5991012;29;20103;-92
2021/12/11 08:55:12;;;;;;;19.55;11.57;;;;;;;-1.70;100.00;100351.41;5991004;29;20119;-92
2021/12/11 08:58:17;;;;;;;18.67;12.15;;;;;;;-1.70;100.00;100356.47;5990413;29;20053;-92
2021/12/11 09:01:36;;;;;;;18.35;11.63;;;;;;;-1.67;100.00;100356.38;5980217;29;20055;-92
2021/12/11 09:04:57;;;;;;;18.48;11.13;;;;;;;-1.64;100.00;100373.19;5971522;29;20130;-92
2021/12/11 09:08:22;;;;;;;23.77;12.52;;;;;;;-1.60;100.00;100380.69;5978294;29;20063;-92
2021/12/11 09:11:42;;;;;;;19.30;12.00;;;;;;;-1.60;100.00;100385.75;5996781;29;20166;-92
2021/12/11 09:15:01;;;;;;;26.42;12.88;;;;;;;-1.58;100.00;100386.53;6001686;29;20057;-92
2021/12/11 09:18:24;;;;;;;18.67;11.05;;;;;;;-1.56;100.00;100387.34;5988584;29;20045;-92
2021/12/11 09:21:50;;;;;;;19.98;10.90;;;;;;;-1.52;100.00;100399.06;5989037;29;20082;-92
2021/12/11 09:25:16;;;;;;;16.88;10.77;;;;;;;-1.47;100.00;100398.06;5992073;29;20101;-92
2021/12/11 09:28:51;;;;;;;18.38;10.63;;;;;;;-1.45;100.00;100394.59;5979737;29;20418;-92
2021/12/11 09:32:16;;;;;;;18.42;10.70;;;;;;;-1.41;100.00;100405.50;5974646;29;20051;-92
2021/12/11 09:35:24;;;;;;;16.27;9.40;;;;;;;-1.41;100.00;100406.31;5988048;29;20054;-92
2021/12/11 09:38:30;;;;;;;17.73;10.60;;;;;;;-1.37;100.00;100402.78;5971274;29;20046;-92
2021/12/11 09:41:45;;;;;;;17.88;10.82;;;;;;;-1.32;100.00;100415.34;5974783;29;20075;-92
2021/12/11 09:44:55;;;;;;;16.90;10.13;;;;;;;-1.28;100.00;100419.47;5985241;29;20715;-92
2021/12/11 09:48:01;;;;;;;17.27;9.65;;;;;;;-1.27;100.00;100416.03;5982182;29;20172;-92
2021/12/11 09:51:09;;;;;;;19.05;10.25;;;;;;;-1.23;100.00;100424.41;5979587;29;20055;-92
2021/12/11 09:54:19;;;;;;;17.63;9.95;;;;;;;-1.19;100.00;100428.47;5967257;29;20050;-90
2021/12/11 09:57:24;;;;;;;16.05;10.13;;;;;;;-1.17;100.00;100429.25;5971655;29;20044;-90
2021/12/11 10:00:35;;;;;;;17.13;10.35;;;;;;;-1.13;100.00;100435.91;5971813;29;20085;-90
2021/12/11 10:04:00;;;;;;;16.23;10.05;;;;;;;-1.11;100.00;100437.53;5995823;29;20051;-90
2021/12/11 10:07:29;;;;;;;17.33;10.18;;;;;;;-1.08;100.00;100439.13;5969694;29;20087;-90
2021/12/11 10:10:32;;;;;;;19.27;11.07;;;;;;;-1.07;100.00;100445.88;5977531;29;20126;-90
2021/12/11 10:13:40;;;;;;;16.67;9.80;;;;;;;-1.04;100.00;100447.47;5980531;29;20524;-90
2021/12/11 10:16:47;;;;;;;16.50;9.98;;;;;;;-1.02;100.00;100450.81;5966527;29;20047;-90
2021/12/11 10:19:52;;;;;;;19.60;9.73;;;;;;;-0.99;100.00;100448.19;5978968;29;20060;-90
2021/12/11 10:22:57;;;;;;;19.15;11.52;;;;;;;-0.97;100.00;100457.41;5982671;29;20079;-90
2021/12/11 10:26:02;;;;;;;19.13;10.63;;;;;;;-0.94;100.00;100462.38;5982541;29;20055;-90
2021/12/11 10:29:10;;;;;;;19.92;10.88;;;;;;;-0.91;100.00;100461.47;5982983;29;20046;-90
2021/12/11 10:32:16;;;;;;;19.33;10.75;;;;;;;-0.88;100.00;100467.25;5972089;29;20051;-90
2021/12/11 10:35:29;;;;;;;18.30;10.93;;;;;;;-0.83;100.00;100476.44;5983773;29;20052;-90
2021/12/11 10:38:31;;;;;;;20.35;11.32;;;;;;;-0.80;100.00;100481.44;5984075;29;20046;-90
2021/12/11 10:41:56;;;;;;;20.52;11.63;;;;;;;-0.74;100.00;100487.16;5984249;29;20060;-90
2021/12/11 10:44:59;;;;;;;20.13;12.05;;;;;;;-0.70;100.00;100490.41;5983233;29;20156;-90
2021/12/11 10:48:11;;;;;;;18.08;10.73;;;;;;;-0.66;100.00;100495.34;5983482;29;20054;-90
2021/12/11 10:51:49;;;;;;;20.60;10.00;;;;;;;-0.61;100.00;100505.38;5982968;29;20054;-90
2021/12/11 10:54:54;;;;;;;19.38;10.82;;;;;;;-0.55;100.00;100514.50;5981001;29;20050;-90
2021/12/11 10:58:03;;;;;;;19.02;11.07;;;;;;;-0.55;100.00;100517.03;5979400;29;20095;-90
2021/12/11 11:01:09;;;;;;;20.95;11.63;;;;;;;-0.51;100.00;100516.06;5972182;29;20070;-90
2021/12/11 11:04:17;;;;;;;20.60;11.43;;;;;;;-0.34;100.00;100520.59;5982267;29;20092;-90
2021/12/11 11:07:20;;;;;;;22.00;11.95;;;;;;;-0.26;100.00;100524.50;5975124;29;20050;-90
2021/12/11 11:10:27;;;;;;;22.70;11.48;;;;;;;-0.17;100.00;100527.63;5972871;29;20125;-90
2021/12/11 11:13:29;;;;;;;24.45;12.15;;;;;;;-0.06;100.00;100540.81;5972608;29;20050;-90
2021/12/11 11:16:34;;;;;;;22.42;11.18;;;;;;;-0.02;100.00;100537.28;5972321;29;20042;-90
2021/12/11 11:19:40;;;;;;;19.95;11.35;;;;;;;0.03;100.00;100534.59;5967015;29;20772;-90
2021/12/11 11:22:44;;;;;;;21.17;11.40;;;;;;;0.15;100.00;100544.28;5982238;29;20107;-91
2021/12/11 11:25:49;;;;;;;19.75;11.73;;;;;;;0.27;100.00;100543.03;5972448;29;20047;-90
2021/12/11 11:28:54;;;;;;;19.48;11.13;;;;;;;0.35;100.00;100546.16;5968746;29;20259;-91
2021/12/11 11:32:02;;;;;;;19.80;11.27;;;;;;;0.42;100.00;100548.41;5982412;29;20404;-91
2021/12/11 11:35:22;;;;;;;19.42;11.45;;;;;;;0.43;100.00;100541.59;5980446;29;20050;-91
2021/12/11 11:38:29;;;;;;;22.58;12.20;;;;;;;0.45;100.00;100550.03;5978055;29;20056;-91
2021/12/11 11:41:36;;;;;;;17.88;11.15;;;;;;;0.46;100.00;100544.03;5965139;29;20112;-91
2021/12/11 11:44:42;;;;;;;25.27;11.93;;;;;;;0.53;100.00;100554.84;5971348;29;20058;-91
2021/12/11 11:47:46;;;;;;;19.90;11.35;;;;;;;0.62;100.00;100555.31;5969987;29;20046;-91
2021/12/11 11:50:51;;;;;;;16.25;10.13;;;;;;;0.66;100.00;100558.56;5981829;29;20049;-91
2021/12/11 11:53:54;;;;;;;21.75;11.50;;;;;;;0.73;100.00;100564.28;5981356;29;20050;-91
2021/12/11 11:57:13;;;;;;;24.08;11.98;;;;;;;0.78;100.00;100565.75;5982112;29;20070;-91
2021/12/11 12:00:20;;;;;;;25.38;11.98;;;;;;;0.83;100.00;100571.50;5999419;29;20114;-91
2021/12/11 12:03:26;;;;;;;22.00;10.93;;;;;;;0.86;100.00;100568.00;5976381;29;20050;-91
2021/12/11 12:06:34;;;;;;;18.98;11.18;;;;;;;0.89;100.00;100577.25;5972101;29;20067;-91
2021/12/11 12:09:50;;;;;;;21.20;11.00;;;;;;;0.95;100.00;100579.59;5958420;29;20062;-91
2021/12/11 12:12:53;;;;;;;18.83;10.57;;;;;;;0.94;100.00;100577.91;5979272;29;20485;-91
2021/12/11 12:16:04;;;;;;;20.00;9.52;;;;;;;0.98;100.00;100574.38;5982197;29;20069;-91
2021/12/11 12:19:07;;;;;;;14.10;8.60;;;;;;;1.10;100.00;100583.25;5983801;29;20471;-92
2021/12/11 12:22:13;;;;;;;15.65;9.15;;;;;;;1.17;100.00;100587.22;5978750;29;20492;-92
2021/12/11 12:25:16;;;;;;;15.85;8.60;;;;;;;1.27;100.00;100581.72;5979672;29;20048;-92
2021/12/11 12:28:21;;;;;;;14.32;8.88;;;;;;;1.27;100.00;100580.88;5979571;29;20176;-92
2021/12/11 12:31:33;;;;;;;14.90;8.23;;;;;;;1.20;100.00;100577.75;5964836;29;20070;-92
2021/12/11 12:34:35;;;;;;;15.57;8.80;;;;;;;1.26;100.00;100594.50;5981533;29;20042;-92
2021/12/11 12:37:53;;;;;;;15.68;8.43;;;;;;;1.26;100.00;100587.69;5980560;29;20055;-91
2021/12/11 12:41:04;;;;;;;13.57;8.07;;;;;;;1.21;100.00;100594.69;5981712;29;20119;-92
2021/12/11 12:44:24;;;;;;;16.23;7.80;;;;;;;1.28;100.00;100587.63;5974080;29;20161;-92
2021/12/11 12:47:37;;;;;;;12.30;6.63;;;;;;;1.25;100.00;100585.22;5980612;29;20307;-92
2021/12/11 12:50:47;;;;;;;10.15;6.47;;;;;;;1.24;100.00;100586.94;5972288;29;20069;-92
2021/12/11 12:53:51;;;;;;;11.07;6.33;;;;;;;1.23;100.00;100584.44;5983723;29;20062;-91
2021/12/11 12:57:26;;;;;;;12.90;6.60;;;;;;;1.25;100.00;100591.13;5983223;29;20051;-91
2021/12/11 13:00:28;;;;;;;8.45;5.85;;;;;;;1.18;100.00;100601.63;5983444;29;20058;-91
2021/12/11 13:03:34;;;;;;;12.63;6.57;;;;;;;1.13;100.00;100604.34;5984847;29;20047;-91
2021/12/11 13:06:42;;;;;;;13.63;7.95;;;;;;;1.06;100.00;100611.41;5975298;29;20777;-91
2021/12/11 13:09:59;;;;;;;12.85;5.75;;;;;;;1.05;100.00;100617.41;5983619;29;20133;-91
2021/12/11 13:13:06;;;;;;;8.70;5.75;;;;;;;1.08;100.00;100617.28;5971664;29;20486;-91
2021/12/11 13:16:15;;;;;;;11.10;5.90;;;;;;;1.15;100.00;100620.44;5971795;29;20047;-91
2021/12/11 13:19:32;;;;;;;9.82;5.90;;;;;;;1.18;100.00;100624.56;5984166;29;20049;-92
2021/12/11 13:22:39;;;;;;;10.35;5.82;;;;;;;1.05;100.00;100621.66;5970942;29;20054;-92
2021/12/11 13:25:53;;;;;;;11.30;6.55;;;;;;;1.00;100.00;100623.56;5981679;29;20174;-92
2021/12/11 13:28:58;;;;;;;10.57;6.38;;;;;;;0.89;100.00;100629.03;5983560;29;20079;-92
2021/12/11 13:32:11;;;;;;;11.30;6.20;;;;;;;0.77;100.00;100629.50;5973141;29;20055;-92
2021/12/11 13:35:19;;;;;;;12.85;6.70;;;;;;;0.73;100.00;100638.16;5968928;29;20500;-92
2021/12/11 13:38:23;;;;;;;12.02;6.85;;;;;;;0.68;100.00;100640.03;5967430;29;20125;-92
2021/12/11 13:41:31;;;;;;;12.18;6.95;;;;;;;0.63;100.00;100643.56;5967427;29;20055;-92
2021/12/11 13:44:54;;;;;;;11.93;8.05;;;;;;;0.63;100.00;100656.31;5978716;29;20728;-92
2021/12/11 13:47:57;;;;;;;12.65;7.88;;;;;;;0.62;100.00;100661.44;5983324;29;20127;-92
2021/12/11 13:51:12;;;;;;;11.43;6.90;;;;;;;0.66;100.00;100663.00;5989969;29;20063;-92
2021/12/11 13:54:15;;;;;;;9.93;6.57;;;;;;;0.66;100.00;100667.28;5981504;29;20503;-92
2021/12/11 13:57:25;;;;;;;9.23;7.00;;;;;;;0.68;100.00;100673.97;5978863;29;20488;-92
2021/12/11 14:00:35;;;;;;;9.98;6.05;;;;;;;0.65;100.00;100674.09;5979575;29;20058;-92
2021/12/11 14:03:45;;;;;;;9.98;6.05;;;;;;;0.63;100.00;100686.06;5979521;29;20047;-92
2021/12/11 14:06:58;;;;;;;11.77;7.40;;;;;;;0.74;100.00;100688.22;5977417;29;20054;-92
2021/12/11 14:10:08;;;;;;;10.65;6.13;;;;;;;0.87;100.00;100694.56;5983585;29;20042;-91
2021/12/11 14:13:13;;;;;;;13.82;7.90;;;;;;;1.08;100.00;100703.13;5971746;29;20085;-91
2021/12/11 14:16:16;;;;;;;12.63;7.50;;;;;;;1.05;100.00;100709.16;5971661;29;20625;-92
2021/12/11 14:19:19;;;;;;;14.38;7.82;;;;;;;0.98;100.00;100712.00;5978249;29;20050;-92
2021/12/11 14:22:23;;;;;;;12.25;8.13;;;;;;;0.84;100.00;100720.94;5976095;29;20413;-92
2021/12/11 14:25:31;;;;;;;14.13;8.55;;;;;;;0.81;100.00;100717.69;5969011;29;20082;-92
2021/12/11 14:28:34;;;;;;;16.92;8.10;;;;;;;0.64;100.00;100726.72;5970193;29;20058;-92
2021/12/11 14:31:39;;;;;;;14.65;7.97;;;;;;;0.50;100.00;100731.50;5964206;29;20043;-91
2021/12/11 14:34:41;;;;;;;13.98;8.00;;;;;;;0.40;100.00;100740.31;5967581;29;20046;-92
2021/12/11 14:37:45;;;;;;;14.98;8.65;;;;;;;0.32;100.00;100747.38;5970775;29;20046;-92